Traffic Girl — FAE4288 — position and weather

sailwx.info

Track history (hours):
 
Tides and Currents Weather Stations Pressure Air Temp Water Temp Dewpoint Dewpoint Depression Visibility Wind Speed Wind Dir Waves Ship Positions

Traffic Girl

Last reported at 2017-Aug-25 15:20 UTC. Time now 2017-Sep-22 22:37 UTC.
Position N 48°28' W 004°45'.
Warning: this ship's position is 28 days out of date.

Length 10 m.

Type: Sailing vessel. MMSI: 227474980.

Date/timePositionNaut miles runAvg speedWind from/ knotsBaromVisibWave heightAir tempDewpointWater temp
2017-Aug-25 15:20N 48°28' W 004°45'0 0.0
2017-Aug-25 14:59N 48°28' W 004°45'6 5.7
2017-Aug-25 13:58N 48°23' W 004°49'5 9.9
2017-Aug-25 13:30N 48°18' W 004°47'4 7.8
2017-Aug-25 13:00N 48°15' W 004°46'4 7.5
2017-Aug-25 12:30N 48°11' W 004°46'4 7.5
2017-Aug-25 12:01N 48°07' W 004°46'4 7.3
2017-Aug-25 11:31N 48°04' W 004°46'  
2017-Aug-20 12:36N 47°41' W 003°38'1 7.2
2017-Aug-20 12:25N 47°41' W 003°36'3 6.9
2017-Aug-20 12:00N 47°40' W 003°32'3 5.7
2017-Aug-20 11:30N 47°39' W 003°28'1 0.0
2017-Aug-18 16:47N 47°39' W 003°27'0 0.0
2017-Aug-18 16:29N 47°39' W 003°27'2 3.8
2017-Aug-18 16:00N 47°38' W 003°24'2 4.7
2017-Aug-18 15:31N 47°36' W 003°22'3 5.3
2017-Aug-18 15:01N 47°34' W 003°20'3 5.4
2017-Aug-18 14:30N 47°32' W 003°17'5 5.4
2017-Aug-18 13:31N 47°27' W 003°14'2 4.6
2017-Aug-18 13:01N 47°25' W 003°12'3 5.9
2017-Aug-18 12:31N 47°23' W 003°10'2 3.3
2017-Aug-18 11:53N 47°21' W 003°09'  
Track history (hours):
 
Tides and Currents Weather Stations Pressure Air Temp Water Temp Dewpoint Dewpoint Depression Visibility Wind Speed Wind Dir Waves Ship Positions

Traffic Girl

Last reported at 2017-Aug-25 15:20 UTC. Time now 2017-Sep-22 22:37 UTC.
Position N 48°28' W 004°45'.
Warning: this ship's position is 28 days out of date.

Length 10 m.

Type: Sailing vessel. MMSI: 227474980.

Date/timePositionNaut miles runAvg speedWind from/ knotsBaromVisibWave heightAir tempDewpointWater temp
2017-Aug-25 15:20N 48°28' W 004°45'0 0.0
2017-Aug-25 14:59N 48°28' W 004°45'6 5.7
2017-Aug-25 13:58N 48°23' W 004°49'5 9.9
2017-Aug-25 13:30N 48°18' W 004°47'4 7.8
2017-Aug-25 13:00N 48°15' W 004°46'4 7.5
2017-Aug-25 12:30N 48°11' W 004°46'4 7.5
2017-Aug-25 12:01N 48°07' W 004°46'4 7.3
2017-Aug-25 11:31N 48°04' W 004°46'  
2017-Aug-20 12:36N 47°41' W 003°38'1 7.2
2017-Aug-20 12:25N 47°41' W 003°36'3 6.9
2017-Aug-20 12:00N 47°40' W 003°32'3 5.7
2017-Aug-20 11:30N 47°39' W 003°28'1 0.0
2017-Aug-18 16:47N 47°39' W 003°27'0 0.0
2017-Aug-18 16:29N 47°39' W 003°27'2 3.8
2017-Aug-18 16:00N 47°38' W 003°24'2 4.7
2017-Aug-18 15:31N 47°36' W 003°22'3 5.3
2017-Aug-18 15:01N 47°34' W 003°20'3 5.4
2017-Aug-18 14:30N 47°32' W 003°17'5 5.4
2017-Aug-18 13:31N 47°27' W 003°14'2 4.6
2017-Aug-18 13:01N 47°25' W 003°12'3 5.9
2017-Aug-18 12:31N 47°23' W 003°10'2 3.3
2017-Aug-18 11:53N 47°21' W 003°09'  

Dump ship's entire track history